sensor_id;sensor_type;location;lat;lon;timestamp;P1;durP1;ratioP1;P2;durP2;ratioP2
65033;SDS011;51601;51.356;12.458;2022-07-17T00:00:37;9.37;;;1.80;;
65033;SDS011;51601;51.356;12.458;2022-07-17T00:04:54;7.20;;;1.60;;
65033;SDS011;51601;51.356;12.458;2022-07-17T00:09:09;6.43;;;1.70;;
65033;SDS011;51601;51.356;12.458;2022-07-17T00:13:23;6.07;;;1.90;;
65033;SDS011;51601;51.356;12.458;2022-07-17T00:17:37;6.55;;;1.70;;
65033;SDS011;51601;51.356;12.458;2022-07-17T00:21:51;6.82;;;1.88;;
65033;SDS011;51601;51.356;12.458;2022-07-17T00:26:06;5.53;;;1.60;;
65033;SDS011;51601;51.356;12.458;2022-07-17T00:30:20;9.15;;;1.88;;
65033;SDS011;51601;51.356;12.458;2022-07-17T00:34:35;11.07;;;2.33;;
65033;SDS011;51601;51.356;12.458;2022-07-17T00:38:48;5.50;;;1.80;;
65033;SDS011;51601;51.356;12.458;2022-07-17T00:43:04;8.03;;;1.90;;
65033;SDS011;51601;51.356;12.458;2022-07-17T00:47:18;6.68;;;1.95;;
65033;SDS011;51601;51.356;12.458;2022-07-17T00:51:33;7.10;;;1.77;;
65033;SDS011;51601;51.356;12.458;2022-07-17T00:55:47;10.73;;;2.00;;
65033;SDS011;51601;51.356;12.458;2022-07-17T01:00:04;8.18;;;1.92;;
65033;SDS011;51601;51.356;12.458;2022-07-17T01:04:21;6.97;;;2.00;;
65033;SDS011;51601;51.356;12.458;2022-07-17T01:08:35;8.37;;;2.00;;
65033;SDS011;51601;51.356;12.458;2022-07-17T01:12:50;6.25;;;1.70;;
65033;SDS011;51601;51.356;12.458;2022-07-17T01:17:05;7.57;;;2.00;;
65033;SDS011;51601;51.356;12.458;2022-07-17T01:21:20;8.43;;;1.98;;
65033;SDS011;51601;51.356;12.458;2022-07-17T01:25:34;7.93;;;1.90;;
65033;SDS011;51601;51.356;12.458;2022-07-17T01:29:48;6.78;;;1.88;;
65033;SDS011;51601;51.356;12.458;2022-07-17T01:34:03;5.75;;;1.50;;
65033;SDS011;51601;51.356;12.458;2022-07-17T01:38:20;11.50;;;2.00;;
65033;SDS011;51601;51.356;12.458;2022-07-17T01:42:34;8.32;;;1.70;;
65033;SDS011;51601;51.356;12.458;2022-07-17T01:46:48;5.63;;;1.50;;
65033;SDS011;51601;51.356;12.458;2022-07-17T01:51:02;6.07;;;1.77;;
65033;SDS011;51601;51.356;12.458;2022-07-17T01:55:17;6.32;;;1.60;;
65033;SDS011;51601;51.356;12.458;2022-07-17T01:59:31;8.18;;;1.88;;
65033;SDS011;51601;51.356;12.458;2022-07-17T02:03:46;6.95;;;1.90;;
65033;SDS011;51601;51.356;12.458;2022-07-17T02:08:00;7.37;;;1.70;;
65033;SDS011;51601;51.356;12.458;2022-07-17T02:12:15;8.88;;;2.03;;
65033;SDS011;51601;51.356;12.458;2022-07-17T02:16:29;6.95;;;2.00;;
65033;SDS011;51601;51.356;12.458;2022-07-17T02:20:43;8.03;;;1.83;;
65033;SDS011;51601;51.356;12.458;2022-07-17T02:25:02;5.40;;;1.88;;
65033;SDS011;51601;51.356;12.458;2022-07-17T02:29:18;7.18;;;2.00;;
65033;SDS011;51601;51.356;12.458;2022-07-17T02:33:32;5.83;;;1.93;;
65033;SDS011;51601;51.356;12.458;2022-07-17T02:37:45;8.32;;;2.15;;
65033;SDS011;51601;51.356;12.458;2022-07-17T02:41:59;7.20;;;2.20;;
65033;SDS011;51601;51.356;12.458;2022-07-17T02:46:16;7.80;;;2.08;;
65033;SDS011;51601;51.356;12.458;2022-07-17T02:50:30;8.23;;;2.10;;
65033;SDS011;51601;51.356;12.458;2022-07-17T02:54:46;8.57;;;2.10;;
65033;SDS011;51601;51.356;12.458;2022-07-17T02:59:00;8.25;;;2.10;;
65033;SDS011;51601;51.356;12.458;2022-07-17T03:03:18;8.23;;;2.00;;
65033;SDS011;51601;51.356;12.458;2022-07-17T03:07:32;9.10;;;2.05;;
65033;SDS011;51601;51.356;12.458;2022-07-17T03:11:46;6.50;;;2.10;;
65033;SDS011;51601;51.356;12.458;2022-07-17T03:16:00;7.83;;;1.97;;
65033;SDS011;51601;51.356;12.458;2022-07-17T03:20:18;6.65;;;2.22;;
65033;SDS011;51601;51.356;12.458;2022-07-17T03:24:32;8.27;;;2.00;;
65033;SDS011;51601;51.356;12.458;2022-07-17T03:28:46;9.75;;;2.08;;
65033;SDS011;51601;51.356;12.458;2022-07-17T03:33:00;6.87;;;2.10;;
65033;SDS011;51601;51.356;12.458;2022-07-17T03:37:16;7.80;;;2.30;;
65033;SDS011;51601;51.356;12.458;2022-07-17T03:41:30;6.75;;;2.20;;
65033;SDS011;51601;51.356;12.458;2022-07-17T03:45:47;7.97;;;2.07;;
65033;SDS011;51601;51.356;12.458;2022-07-17T03:50:01;5.78;;;2.10;;
65033;SDS011;51601;51.356;12.458;2022-07-17T03:54:16;7.18;;;2.00;;
65033;SDS011;51601;51.356;12.458;2022-07-17T03:58:30;6.23;;;2.30;;
65033;SDS011;51601;51.356;12.458;2022-07-17T04:02:44;8.20;;;2.60;;
65033;SDS011;51601;51.356;12.458;2022-07-17T04:06:58;7.15;;;2.00;;
65033;SDS011;51601;51.356;12.458;2022-07-17T04:11:13;7.28;;;2.05;;
65033;SDS011;51601;51.356;12.458;2022-07-17T04:15:27;6.03;;;1.97;;
65033;SDS011;51601;51.356;12.458;2022-07-17T04:19:58;7.18;;;2.10;;
65033;SDS011;51601;51.356;12.458;2022-07-17T04:24:12;6.32;;;1.90;;
65033;SDS011;51601;51.356;12.458;2022-07-17T04:28:27;9.60;;;2.50;;
65033;SDS011;51601;51.356;12.458;2022-07-17T04:32:40;8.60;;;2.25;;
65033;SDS011;51601;51.356;12.458;2022-07-17T04:36:54;9.13;;;1.92;;
65033;SDS011;51601;51.356;12.458;2022-07-17T04:41:08;10.30;;;2.20;;
65033;SDS011;51601;51.356;12.458;2022-07-17T04:45:23;9.00;;;2.10;;
65033;SDS011;51601;51.356;12.458;2022-07-17T04:49:37;7.85;;;2.00;;
65033;SDS011;51601;51.356;12.458;2022-07-17T04:53:51;7.28;;;1.95;;
65033;SDS011;51601;51.356;12.458;2022-07-17T04:58:05;8.80;;;1.90;;
65033;SDS011;51601;51.356;12.458;2022-07-17T05:02:20;7.70;;;2.00;;
65033;SDS011;51601;51.356;12.458;2022-07-17T05:06:35;7.80;;;2.17;;
65033;SDS011;51601;51.356;12.458;2022-07-17T05:10:49;7.10;;;1.80;;
65033;SDS011;51601;51.356;12.458;2022-07-17T05:15:03;8.23;;;1.80;;
65033;SDS011;51601;51.356;12.458;2022-07-17T05:19:19;8.85;;;2.05;;
65033;SDS011;51601;51.356;12.458;2022-07-17T05:23:35;8.00;;;2.47;;
65033;SDS011;51601;51.356;12.458;2022-07-17T05:27:48;7.15;;;1.98;;
65033;SDS011;51601;51.356;12.458;2022-07-17T05:32:03;6.53;;;2.00;;
65033;SDS011;51601;51.356;12.458;2022-07-17T05:36:18;7.20;;;2.10;;
65033;SDS011;51601;51.356;12.458;2022-07-17T05:40:32;7.93;;;2.03;;
65033;SDS011;51601;51.356;12.458;2022-07-17T05:44:47;6.72;;;1.80;;
65033;SDS011;51601;51.356;12.458;2022-07-17T05:49:00;11.00;;;2.08;;
65033;SDS011;51601;51.356;12.458;2022-07-17T05:53:16;7.83;;;2.00;;
65033;SDS011;51601;51.356;12.458;2022-07-17T05:57:30;9.32;;;1.95;;
65033;SDS011;51601;51.356;12.458;2022-07-17T06:01:44;7.15;;;1.67;;
65033;SDS011;51601;51.356;12.458;2022-07-17T06:05:58;8.47;;;1.70;;
65033;SDS011;51601;51.356;12.458;2022-07-17T06:10:14;8.25;;;1.58;;
65033;SDS011;51601;51.356;12.458;2022-07-17T06:14:27;8.20;;;1.80;;
65033;SDS011;51601;51.356;12.458;2022-07-17T06:18:41;5.97;;;1.75;;
65033;SDS011;51601;51.356;12.458;2022-07-17T06:22:56;7.50;;;1.60;;
65033;SDS011;51601;51.356;12.458;2022-07-17T06:27:12;6.90;;;1.52;;
65033;SDS011;51601;51.356;12.458;2022-07-17T06:31:25;6.20;;;1.58;;
65033;SDS011;51601;51.356;12.458;2022-07-17T06:35:40;6.93;;;1.63;;
65033;SDS011;51601;51.356;12.458;2022-07-17T06:39:56;6.95;;;1.40;;
65033;SDS011;51601;51.356;12.458;2022-07-17T06:44:12;7.00;;;1.80;;
65033;SDS011;51601;51.356;12.458;2022-07-17T06:48:25;6.70;;;1.70;;
65033;SDS011;51601;51.356;12.458;2022-07-17T06:52:39;5.65;;;1.20;;
65033;SDS011;51601;51.356;12.458;2022-07-17T06:56:57;8.73;;;1.42;;
65033;SDS011;51601;51.356;12.458;2022-07-17T07:01:13;5.78;;;1.40;;
65033;SDS011;51601;51.356;12.458;2022-07-17T07:05:26;6.67;;;1.30;;
65033;SDS011;51601;51.356;12.458;2022-07-17T07:09:40;7.53;;;1.40;;
65033;SDS011;51601;51.356;12.458;2022-07-17T07:13:54;5.70;;;1.40;;
65033;SDS011;51601;51.356;12.458;2022-07-17T07:18:09;7.40;;;1.67;;
65033;SDS011;51601;51.356;12.458;2022-07-17T07:22:23;6.75;;;1.40;;
65033;SDS011;51601;51.356;12.458;2022-07-17T07:26:37;6.18;;;1.42;;
65033;SDS011;51601;51.356;12.458;2022-07-17T07:30:51;7.17;;;1.50;;
65033;SDS011;51601;51.356;12.458;2022-07-17T07:35:07;5.97;;;1.40;;
65033;SDS011;51601;51.356;12.458;2022-07-17T07:39:22;7.07;;;1.55;;
65033;SDS011;51601;51.356;12.458;2022-07-17T07:43:35;7.22;;;1.42;;
65033;SDS011;51601;51.356;12.458;2022-07-17T07:47:50;6.77;;;1.53;;
65033;SDS011;51601;51.356;12.458;2022-07-17T07:52:05;6.47;;;1.77;;
65033;SDS011;51601;51.356;12.458;2022-07-17T07:56:20;7.85;;;1.40;;
65033;SDS011;51601;51.356;12.458;2022-07-17T08:00:34;6.07;;;1.40;;
65033;SDS011;51601;51.356;12.458;2022-07-17T08:04:48;6.18;;;1.60;;
65033;SDS011;51601;51.356;12.458;2022-07-17T08:09:03;6.93;;;1.40;;
65033;SDS011;51601;51.356;12.458;2022-07-17T08:13:17;6.87;;;1.50;;
65033;SDS011;51601;51.356;12.458;2022-07-17T08:17:32;6.03;;;1.40;;
65033;SDS011;51601;51.356;12.458;2022-07-17T08:21:46;6.13;;;1.80;;
65033;SDS011;51601;51.356;12.458;2022-07-17T08:26:02;5.13;;;1.55;;
65033;SDS011;51601;51.356;12.458;2022-07-17T08:30:22;7.77;;;1.50;;
65033;SDS011;51601;51.356;12.458;2022-07-17T08:34:36;6.20;;;1.42;;
65033;SDS011;51601;51.356;12.458;2022-07-17T08:38:50;5.40;;;1.50;;
65033;SDS011;51601;51.356;12.458;2022-07-17T08:43:06;6.57;;;1.40;;
65033;SDS011;51601;51.356;12.458;2022-07-17T08:47:21;6.95;;;1.38;;
65033;SDS011;51601;51.356;12.458;2022-07-17T08:51:35;8.82;;;1.90;;
65033;SDS011;51601;51.356;12.458;2022-07-17T08:55:57;5.60;;;1.73;;
65033;SDS011;51601;51.356;12.458;2022-07-17T09:00:12;6.15;;;1.33;;
65033;SDS011;51601;51.356;12.458;2022-07-17T09:04:28;9.88;;;1.95;;
65033;SDS011;51601;51.356;12.458;2022-07-17T09:08:42;7.55;;;1.60;;
65033;SDS011;51601;51.356;12.458;2022-07-17T09:12:56;6.67;;;1.20;;
65033;SDS011;51601;51.356;12.458;2022-07-17T09:17:12;5.72;;;1.67;;
65033;SDS011;51601;51.356;12.458;2022-07-17T09:21:26;5.55;;;1.50;;
65033;SDS011;51601;51.356;12.458;2022-07-17T09:25:45;8.73;;;1.63;;
65033;SDS011;51601;51.356;12.458;2022-07-17T09:30:02;7.43;;;1.60;;
65033;SDS011;51601;51.356;12.458;2022-07-17T09:34:19;7.68;;;1.50;;
65033;SDS011;51601;51.356;12.458;2022-07-17T09:38:34;6.63;;;1.43;;
65033;SDS011;51601;51.356;12.458;2022-07-17T09:42:54;6.65;;;1.50;;
65033;SDS011;51601;51.356;12.458;2022-07-17T09:47:08;6.88;;;1.40;;
65033;SDS011;51601;51.356;12.458;2022-07-17T09:51:25;8.98;;;1.73;;
65033;SDS011;51601;51.356;12.458;2022-07-17T09:55:40;8.27;;;1.77;;
65033;SDS011;51601;51.356;12.458;2022-07-17T10:00:00;6.93;;;1.52;;
65033;SDS011;51601;51.356;12.458;2022-07-17T10:04:23;6.18;;;1.30;;
65033;SDS011;51601;51.356;12.458;2022-07-17T10:08:39;5.80;;;1.50;;
65033;SDS011;51601;51.356;12.458;2022-07-17T10:12:52;6.38;;;1.40;;
65033;SDS011;51601;51.356;12.458;2022-07-17T10:17:07;5.15;;;1.52;;
65033;SDS011;51601;51.356;12.458;2022-07-17T10:21:22;6.00;;;1.73;;
65033;SDS011;51601;51.356;12.458;2022-07-17T10:25:38;6.85;;;1.50;;
65033;SDS011;51601;51.356;12.458;2022-07-17T10:29:58;6.60;;;1.40;;
65033;SDS011;51601;51.356;12.458;2022-07-17T10:34:14;5.90;;;1.40;;
65033;SDS011;51601;51.356;12.458;2022-07-17T10:38:28;6.23;;;1.60;;
65033;SDS011;51601;51.356;12.458;2022-07-17T10:42:50;6.95;;;1.40;;
65033;SDS011;51601;51.356;12.458;2022-07-17T10:47:05;5.97;;;1.40;;
65033;SDS011;51601;51.356;12.458;2022-07-17T10:51:19;6.23;;;1.47;;
65033;SDS011;51601;51.356;12.458;2022-07-17T10:55:39;5.60;;;1.55;;
65033;SDS011;51601;51.356;12.458;2022-07-17T10:59:55;8.05;;;1.40;;
65033;SDS011;51601;51.356;12.458;2022-07-17T11:04:10;7.30;;;1.50;;
65033;SDS011;51601;51.356;12.458;2022-07-17T11:08:24;6.85;;;1.77;;
65033;SDS011;51601;51.356;12.458;2022-07-17T11:12:38;7.18;;;1.63;;
65033;SDS011;51601;51.356;12.458;2022-07-17T11:16:55;7.78;;;1.42;;
65033;SDS011;51601;51.356;12.458;2022-07-17T11:21:11;7.77;;;1.63;;
65033;SDS011;51601;51.356;12.458;2022-07-17T11:25:25;7.40;;;1.67;;
65033;SDS011;51601;51.356;12.458;2022-07-17T11:29:38;5.45;;;1.48;;
65033;SDS011;51601;51.356;12.458;2022-07-17T11:33:54;5.80;;;1.30;;
65033;SDS011;51601;51.356;12.458;2022-07-17T11:38:10;7.25;;;1.45;;
65033;SDS011;51601;51.356;12.458;2022-07-17T11:42:25;6.82;;;1.60;;
65033;SDS011;51601;51.356;12.458;2022-07-17T11:46:40;7.43;;;1.40;;
65033;SDS011;51601;51.356;12.458;2022-07-17T11:50:56;5.60;;;1.50;;
65033;SDS011;51601;51.356;12.458;2022-07-17T11:55:10;5.70;;;1.70;;
65033;SDS011;51601;51.356;12.458;2022-07-17T11:59:24;5.30;;;1.67;;
65033;SDS011;51601;51.356;12.458;2022-07-17T12:03:40;6.77;;;1.83;;
65033;SDS011;51601;51.356;12.458;2022-07-17T12:07:55;6.35;;;1.70;;
65033;SDS011;51601;51.356;12.458;2022-07-17T12:12:17;5.88;;;1.55;;
65033;SDS011;51601;51.356;12.458;2022-07-17T12:16:34;5.70;;;1.73;;
65033;SDS011;51601;51.356;12.458;2022-07-17T12:20:50;7.20;;;1.52;;
65033;SDS011;51601;51.356;12.458;2022-07-17T12:25:07;7.25;;;1.75;;
65033;SDS011;51601;51.356;12.458;2022-07-17T12:29:21;5.93;;;1.40;;
65033;SDS011;51601;51.356;12.458;2022-07-17T12:33:35;6.50;;;1.40;;
65033;SDS011;51601;51.356;12.458;2022-07-17T12:37:48;4.93;;;1.38;;
65033;SDS011;51601;51.356;12.458;2022-07-17T12:42:07;8.70;;;1.83;;
65033;SDS011;51601;51.356;12.458;2022-07-17T12:46:21;6.03;;;1.57;;
65033;SDS011;51601;51.356;12.458;2022-07-17T12:50:35;5.32;;;1.30;;
65033;SDS011;51601;51.356;12.458;2022-07-17T12:54:50;6.13;;;1.42;;
65033;SDS011;51601;51.356;12.458;2022-07-17T12:59:05;6.93;;;1.50;;
65033;SDS011;51601;51.356;12.458;2022-07-17T13:03:20;7.95;;;1.40;;
65033;SDS011;51601;51.356;12.458;2022-07-17T13:07:34;5.32;;;1.33;;
65033;SDS011;51601;51.356;12.458;2022-07-17T13:11:48;11.83;;;1.60;;
65033;SDS011;51601;51.356;12.458;2022-07-17T13:16:06;6.20;;;1.63;;
65033;SDS011;51601;51.356;12.458;2022-07-17T13:20:20;7.10;;;1.60;;
65033;SDS011;51601;51.356;12.458;2022-07-17T13:24:35;7.95;;;1.80;;
65033;SDS011;51601;51.356;12.458;2022-07-17T13:28:49;4.03;;;1.03;;
65033;SDS011;51601;51.356;12.458;2022-07-17T13:33:04;5.10;;;1.40;;
65033;SDS011;51601;51.356;12.458;2022-07-17T13:37:19;6.00;;;1.45;;
65033;SDS011;51601;51.356;12.458;2022-07-17T13:41:33;7.60;;;1.40;;
65033;SDS011;51601;51.356;12.458;2022-07-17T13:45:46;5.85;;;1.50;;
65033;SDS011;51601;51.356;12.458;2022-07-17T13:50:02;5.20;;;1.50;;
65033;SDS011;51601;51.356;12.458;2022-07-17T13:54:22;5.37;;;1.30;;
65033;SDS011;51601;51.356;12.458;2022-07-17T13:58:36;5.50;;;1.52;;
65033;SDS011;51601;51.356;12.458;2022-07-17T14:02:50;6.95;;;1.70;;
65033;SDS011;51601;51.356;12.458;2022-07-17T14:07:06;5.78;;;1.45;;
65033;SDS011;51601;51.356;12.458;2022-07-17T14:11:20;6.73;;;1.40;;
65033;SDS011;51601;51.356;12.458;2022-07-17T14:15:36;6.72;;;1.38;;
65033;SDS011;51601;51.356;12.458;2022-07-17T14:19:50;5.25;;;1.40;;
65033;SDS011;51601;51.356;12.458;2022-07-17T14:24:05;6.20;;;1.60;;
65033;SDS011;51601;51.356;12.458;2022-07-17T14:28:20;7.78;;;1.50;;
65033;SDS011;51601;51.356;12.458;2022-07-17T14:32:33;7.47;;;2.05;;
65033;SDS011;51601;51.356;12.458;2022-07-17T14:36:47;6.50;;;1.63;;
65033;SDS011;51601;51.356;12.458;2022-07-17T14:41:03;6.72;;;1.67;;
65033;SDS011;51601;51.356;12.458;2022-07-17T14:45:16;5.35;;;1.60;;
65033;SDS011;51601;51.356;12.458;2022-07-17T14:49:30;5.43;;;1.60;;
65033;SDS011;51601;51.356;12.458;2022-07-17T14:53:44;7.40;;;1.40;;
65033;SDS011;51601;51.356;12.458;2022-07-17T14:58:00;5.63;;;1.42;;
65033;SDS011;51601;51.356;12.458;2022-07-17T15:02:14;7.22;;;1.45;;
65033;SDS011;51601;51.356;12.458;2022-07-17T15:06:28;7.03;;;1.83;;
65033;SDS011;51601;51.356;12.458;2022-07-17T15:10:42;5.78;;;1.50;;
65033;SDS011;51601;51.356;12.458;2022-07-17T15:14:58;5.13;;;1.40;;
65033;SDS011;51601;51.356;12.458;2022-07-17T15:19:12;5.60;;;1.53;;
65033;SDS011;51601;51.356;12.458;2022-07-17T15:23:26;7.40;;;1.70;;
65033;SDS011;51601;51.356;12.458;2022-07-17T15:27:39;4.43;;;1.20;;
65033;SDS011;51601;51.356;12.458;2022-07-17T15:31:55;7.75;;;1.67;;
65033;SDS011;51601;51.356;12.458;2022-07-17T15:36:09;6.37;;;1.53;;
65033;SDS011;51601;51.356;12.458;2022-07-17T15:40:23;6.50;;;1.77;;
65033;SDS011;51601;51.356;12.458;2022-07-17T15:44:37;5.80;;;1.52;;
65033;SDS011;51601;51.356;12.458;2022-07-17T15:48:52;5.07;;;1.70;;
65033;SDS011;51601;51.356;12.458;2022-07-17T15:53:06;6.57;;;1.70;;
65033;SDS011;51601;51.356;12.458;2022-07-17T15:57:20;5.10;;;1.30;;
65033;SDS011;51601;51.356;12.458;2022-07-17T16:02:04;5.67;;;1.40;;
65033;SDS011;51601;51.356;12.458;2022-07-17T16:06:20;5.57;;;1.65;;
65033;SDS011;51601;51.356;12.458;2022-07-17T16:10:34;4.93;;;1.40;;
65033;SDS011;51601;51.356;12.458;2022-07-17T16:14:47;5.90;;;1.50;;
65033;SDS011;51601;51.356;12.458;2022-07-17T16:19:01;6.10;;;1.40;;
65033;SDS011;51601;51.356;12.458;2022-07-17T16:23:17;7.25;;;1.50;;
65033;SDS011;51601;51.356;12.458;2022-07-17T16:27:31;7.05;;;1.55;;
65033;SDS011;51601;51.356;12.458;2022-07-17T16:31:51;5.80;;;1.63;;
65033;SDS011;51601;51.356;12.458;2022-07-17T16:36:05;7.22;;;1.58;;
65033;SDS011;51601;51.356;12.458;2022-07-17T16:40:21;9.55;;;1.70;;
65033;SDS011;51601;51.356;12.458;2022-07-17T16:44:35;6.07;;;1.60;;
65033;SDS011;51601;51.356;12.458;2022-07-17T16:48:49;5.85;;;1.60;;
65033;SDS011;51601;51.356;12.458;2022-07-17T16:53:02;7.00;;;1.88;;
65033;SDS011;51601;51.356;12.458;2022-07-17T16:57:18;5.40;;;1.23;;
65033;SDS011;51601;51.356;12.458;2022-07-17T17:01:32;9.97;;;1.70;;
65033;SDS011;51601;51.356;12.458;2022-07-17T17:05:46;7.20;;;1.80;;
65033;SDS011;51601;51.356;12.458;2022-07-17T17:10:00;6.80;;;1.60;;
65033;SDS011;51601;51.356;12.458;2022-07-17T17:14:16;5.73;;;1.50;;
65033;SDS011;51601;51.356;12.458;2022-07-17T17:18:30;5.90;;;1.92;;
65033;SDS011;51601;51.356;12.458;2022-07-17T17:22:44;9.05;;;2.53;;
65033;SDS011;51601;51.356;12.458;2022-07-17T17:26:57;9.47;;;2.60;;
65033;SDS011;51601;51.356;12.458;2022-07-17T17:31:13;9.30;;;2.50;;
65033;SDS011;51601;51.356;12.458;2022-07-17T17:35:28;6.30;;;1.80;;
65033;SDS011;51601;51.356;12.458;2022-07-17T17:39:42;5.97;;;1.98;;
65033;SDS011;51601;51.356;12.458;2022-07-17T17:43:55;6.87;;;1.70;;
65033;SDS011;51601;51.356;12.458;2022-07-17T17:48:11;6.57;;;1.60;;
65033;SDS011;51601;51.356;12.458;2022-07-17T17:52:24;6.00;;;1.75;;
65033;SDS011;51601;51.356;12.458;2022-07-17T17:56:38;7.33;;;1.60;;
65033;SDS011;51601;51.356;12.458;2022-07-17T18:00:52;6.15;;;1.58;;
65033;SDS011;51601;51.356;12.458;2022-07-17T18:05:08;8.32;;;3.15;;
65033;SDS011;51601;51.356;12.458;2022-07-17T18:09:22;13.10;;;4.17;;
65033;SDS011;51601;51.356;12.458;2022-07-17T18:13:36;10.50;;;4.32;;
65033;SDS011;51601;51.356;12.458;2022-07-17T18:17:49;12.20;;;3.85;;
65033;SDS011;51601;51.356;12.458;2022-07-17T18:22:05;8.50;;;3.05;;
65033;SDS011;51601;51.356;12.458;2022-07-17T18:26:18;9.77;;;2.80;;
65033;SDS011;51601;51.356;12.458;2022-07-17T18:30:32;9.75;;;3.38;;
65033;SDS011;51601;51.356;12.458;2022-07-17T18:34:46;6.35;;;2.30;;
65033;SDS011;51601;51.356;12.458;2022-07-17T18:39:01;9.23;;;2.00;;
65033;SDS011;51601;51.356;12.458;2022-07-17T18:43:15;8.00;;;1.67;;
65033;SDS011;51601;51.356;12.458;2022-07-17T18:47:29;9.60;;;2.20;;
65033;SDS011;51601;51.356;12.458;2022-07-17T18:51:43;6.60;;;1.80;;
65033;SDS011;51601;51.356;12.458;2022-07-17T18:55:59;6.28;;;1.95;;
65033;SDS011;51601;51.356;12.458;2022-07-17T19:00:13;7.07;;;1.85;;
65033;SDS011;51601;51.356;12.458;2022-07-17T19:04:27;5.57;;;1.80;;
65033;SDS011;51601;51.356;12.458;2022-07-17T19:08:41;8.87;;;1.93;;
65033;SDS011;51601;51.356;12.458;2022-07-17T19:12:56;7.57;;;1.85;;
65033;SDS011;51601;51.356;12.458;2022-07-17T19:17:10;6.40;;;1.70;;
65033;SDS011;51601;51.356;12.458;2022-07-17T19:21:24;8.77;;;2.20;;
65033;SDS011;51601;51.356;12.458;2022-07-17T19:25:38;9.55;;;2.03;;
65033;SDS011;51601;51.356;12.458;2022-07-17T19:29:55;6.47;;;1.70;;
65033;SDS011;51601;51.356;12.458;2022-07-17T19:34:09;7.00;;;1.70;;
65033;SDS011;51601;51.356;12.458;2022-07-17T19:38:23;6.82;;;1.70;;
65033;SDS011;51601;51.356;12.458;2022-07-17T19:42:36;13.95;;;1.90;;
65033;SDS011;51601;51.356;12.458;2022-07-17T19:46:52;7.13;;;1.95;;
65033;SDS011;51601;51.356;12.458;2022-07-17T19:51:06;8.63;;;2.30;;
65033;SDS011;51601;51.356;12.458;2022-07-17T19:55:19;7.60;;;2.03;;
65033;SDS011;51601;51.356;12.458;2022-07-17T19:59:34;6.65;;;2.03;;
65033;SDS011;51601;51.356;12.458;2022-07-17T20:03:50;7.53;;;1.80;;
65033;SDS011;51601;51.356;12.458;2022-07-17T20:08:04;7.43;;;1.80;;
65033;SDS011;51601;51.356;12.458;2022-07-17T20:12:18;11.63;;;2.10;;
65033;SDS011;51601;51.356;12.458;2022-07-17T20:16:32;8.10;;;2.10;;
65033;SDS011;51601;51.356;12.458;2022-07-17T20:20:47;6.60;;;2.13;;
65033;SDS011;51601;51.356;12.458;2022-07-17T20:25:01;6.85;;;2.10;;
65033;SDS011;51601;51.356;12.458;2022-07-17T20:29:15;7.68;;;2.67;;
65033;SDS011;51601;51.356;12.458;2022-07-17T20:33:29;8.53;;;2.20;;
65033;SDS011;51601;51.356;12.458;2022-07-17T20:37:44;10.27;;;2.22;;
65033;SDS011;51601;51.356;12.458;2022-07-17T20:41:58;8.95;;;2.17;;
65033;SDS011;51601;51.356;12.458;2022-07-17T20:46:12;7.83;;;2.13;;
65033;SDS011;51601;51.356;12.458;2022-07-17T20:50:26;7.10;;;2.03;;
65033;SDS011;51601;51.356;12.458;2022-07-17T20:54:43;6.85;;;2.13;;
65033;SDS011;51601;51.356;12.458;2022-07-17T20:58:57;6.07;;;2.50;;
65033;SDS011;51601;51.356;12.458;2022-07-17T21:03:10;13.27;;;3.35;;
65033;SDS011;51601;51.356;12.458;2022-07-17T21:07:24;12.95;;;5.32;;
65033;SDS011;51601;51.356;12.458;2022-07-17T21:11:40;9.40;;;2.88;;
65033;SDS011;51601;51.356;12.458;2022-07-17T21:15:54;10.43;;;3.53;;
65033;SDS011;51601;51.356;12.458;2022-07-17T21:20:08;10.27;;;2.88;;
65033;SDS011;51601;51.356;12.458;2022-07-17T21:24:23;11.00;;;2.72;;
65033;SDS011;51601;51.356;12.458;2022-07-17T21:28:38;7.13;;;2.33;;
65033;SDS011;51601;51.356;12.458;2022-07-17T21:32:52;7.18;;;2.42;;
65033;SDS011;51601;51.356;12.458;2022-07-17T21:37:05;6.38;;;2.10;;
65033;SDS011;51601;51.356;12.458;2022-07-17T21:41:19;7.30;;;2.40;;
65033;SDS011;51601;51.356;12.458;2022-07-17T21:45:34;7.53;;;2.30;;
65033;SDS011;51601;51.356;12.458;2022-07-17T21:49:48;7.88;;;2.30;;
65033;SDS011;51601;51.356;12.458;2022-07-17T21:54:02;8.38;;;2.42;;
65033;SDS011;51601;51.356;12.458;2022-07-17T21:58:16;6.97;;;2.10;;
65033;SDS011;51601;51.356;12.458;2022-07-17T22:02:31;7.32;;;2.53;;
65033;SDS011;51601;51.356;12.458;2022-07-17T22:06:45;7.65;;;2.63;;
65033;SDS011;51601;51.356;12.458;2022-07-17T22:11:00;8.03;;;2.60;;
65033;SDS011;51601;51.356;12.458;2022-07-17T22:15:14;7.55;;;2.40;;
65033;SDS011;51601;51.356;12.458;2022-07-17T22:19:30;8.32;;;2.38;;
65033;SDS011;51601;51.356;12.458;2022-07-17T22:23:45;8.23;;;2.57;;
65033;SDS011;51601;51.356;12.458;2022-07-17T22:27:59;13.70;;;5.68;;
65033;SDS011;51601;51.356;12.458;2022-07-17T22:32:15;8.13;;;2.97;;
65033;SDS011;51601;51.356;12.458;2022-07-17T22:36:30;13.35;;;6.35;;
65033;SDS011;51601;51.356;12.458;2022-07-17T22:40:44;8.67;;;2.93;;
65033;SDS011;51601;51.356;12.458;2022-07-17T22:44:58;10.55;;;3.55;;
65033;SDS011;51601;51.356;12.458;2022-07-17T22:49:12;9.93;;;2.70;;
65033;SDS011;51601;51.356;12.458;2022-07-17T22:53:27;12.50;;;6.07;;
65033;SDS011;51601;51.356;12.458;2022-07-17T22:57:41;6.60;;;2.33;;
65033;SDS011;51601;51.356;12.458;2022-07-17T23:01:55;10.38;;;2.55;;
65033;SDS011;51601;51.356;12.458;2022-07-17T23:06:10;9.07;;;2.93;;
65033;SDS011;51601;51.356;12.458;2022-07-17T23:10:29;7.38;;;2.50;;
65033;SDS011;51601;51.356;12.458;2022-07-17T23:14:43;8.30;;;2.90;;
65033;SDS011;51601;51.356;12.458;2022-07-17T23:18:57;11.05;;;3.20;;
65033;SDS011;51601;51.356;12.458;2022-07-17T23:23:11;9.37;;;2.67;;
65033;SDS011;51601;51.356;12.458;2022-07-17T23:27:26;10.13;;;3.08;;
65033;SDS011;51601;51.356;12.458;2022-07-17T23:31:40;8.60;;;2.63;;
65033;SDS011;51601;51.356;12.458;2022-07-17T23:35:54;10.70;;;4.27;;
65033;SDS011;51601;51.356;12.458;2022-07-17T23:40:08;8.77;;;3.60;;
65033;SDS011;51601;51.356;12.458;2022-07-17T23:44:23;20.60;;;8.75;;
65033;SDS011;51601;51.356;12.458;2022-07-17T23:48:37;30.60;;;15.57;;
65033;SDS011;51601;51.356;12.458;2022-07-17T23:52:51;20.42;;;9.43;;
65033;SDS011;51601;51.356;12.458;2022-07-17T23:57:05;29.35;;;12.65;;
